Terminal Aerodrome Forecast
Issued by NWS

Home | Current Version | Previous Version | Graphics & Text | Print | Product List | Glossary On
Versions: 1 2 3 4 5 6 7 8 9 10 11 12 13 14 15 16 17 18
960
FTUS43 KMPX 161255 AAA
TAFRNH
TAF AMD
KRNH 161255Z 1613/1712 35012KT 6SM -SN SCT015 BKN040
      TEMPO 1613/1614 3SM -SN BKN020
     FM161500 35014G19KT P6SM -SN BKN020 OVC040
     FM161800 33014G21KT P6SM VCSH BKN025
     FM170200 31006KT P6SM SCT030=

USA.gov is the U.S. government's official web portal to all federal, state and local government web resources and services.